createdAt,value
2023-05-12T00:01:09.993Z,100.00
2023-05-12T00:03:37.298Z,100.00
2023-05-12T00:06:15.120Z,100.00
2023-05-12T00:08:42.257Z,100.00
2023-05-12T00:11:10.018Z,100.00
2023-05-12T00:13:40.092Z,100.00
2023-05-12T00:16:15.840Z,100.00
2023-05-12T00:18:47.575Z,100.00
2023-05-12T00:21:15.906Z,100.00
2023-05-12T00:23:48.419Z,100.00
2023-05-12T00:26:15.753Z,100.00
2023-05-12T00:28:44.373Z,100.00
2023-05-12T00:31:11.603Z,100.00
2023-05-12T00:33:41.965Z,100.00
2023-05-12T00:36:09.430Z,100.00
2023-05-12T00:38:37.524Z,100.00
2023-05-12T00:41:06.566Z,100.00
2023-05-12T00:43:36.763Z,100.00
2023-05-12T00:46:09.271Z,100.00
2023-05-12T00:48:40.565Z,100.00
2023-05-12T00:51:08.742Z,100.00
2023-05-12T00:53:48.303Z,100.00
2023-05-12T00:56:19.339Z,100.00
2023-05-12T00:58:47.434Z,100.00
2023-05-12T01:01:19.219Z,100.00
2023-05-12T01:03:52.761Z,100.00
2023-05-12T01:06:30.451Z,100.00
2023-05-12T01:09:01.235Z,100.00
2023-05-12T01:11:39.056Z,100.00
2023-05-12T01:14:08.240Z,100.00
2023-05-12T01:17:13.929Z,100.00
2023-05-12T01:19:58.663Z,100.00
2023-05-12T01:22:35.967Z,100.00
2023-05-12T01:25:14.268Z,100.00
2023-05-12T01:27:46.288Z,100.00
2023-05-12T01:30:18.525Z,100.00
2023-05-12T01:32:46.059Z,100.00
2023-05-12T01:35:17.201Z,100.00
2023-05-12T01:37:52.529Z,100.00
2023-05-12T01:40:20.298Z,100.00
2023-05-12T01:42:48.320Z,100.00
2023-05-12T01:45:21.689Z,100.00
2023-05-12T01:47:52.392Z,100.00
2023-05-12T01:50:25.973Z,100.00
2023-05-12T01:52:53.132Z,100.00
2023-05-12T01:55:20.954Z,100.00
2023-05-12T01:58:04.963Z,100.00
2023-05-12T02:00:32.785Z,100.00
2023-05-12T02:03:03.410Z,100.00
2023-05-12T02:05:33.766Z,100.00
2023-05-12T02:08:02.015Z,100.00
2023-05-12T02:10:29.198Z,100.00
2023-05-12T02:13:01.070Z,100.00
2023-05-12T02:15:37.789Z,100.00
2023-05-12T02:18:05.007Z,100.00
2023-05-12T02:20:32.769Z,100.00
2023-05-12T02:23:04.051Z,100.00
2023-05-12T02:25:34.804Z,100.00
2023-05-12T02:28:10.608Z,100.00
2023-05-12T02:30:49.577Z,100.00
2023-05-12T02:33:18.065Z,100.00
2023-05-12T02:35:46.899Z,100.00
2023-05-12T02:38:22.957Z,100.00
2023-05-12T02:40:51.245Z,100.00
2023-05-12T02:43:18.865Z,100.00
2023-05-12T02:45:59.306Z,100.00
2023-05-12T02:48:28.696Z,100.00
2023-05-12T02:50:59.131Z,100.00
2023-05-12T02:53:28.188Z,100.00
2023-05-12T02:55:55.375Z,100.00
2023-05-12T02:58:33.362Z,100.00
2023-05-12T03:01:09.753Z,100.00
2023-05-12T03:03:46.081Z,100.00
2023-05-12T03:06:13.593Z,100.00
2023-05-12T03:08:41.635Z,100.00
2023-05-12T03:11:09.356Z,100.00
2023-05-12T03:13:39.450Z,100.00
2023-05-12T03:16:09.384Z,100.00
2023-05-12T03:18:39.633Z,100.00
2023-05-12T03:21:15.052Z,100.00
2023-05-12T03:23:42.488Z,100.00
2023-05-12T03:26:10.257Z,100.00
2023-05-12T03:28:37.720Z,100.00
2023-05-12T03:31:05.033Z,100.00
2023-05-12T03:33:37.070Z,100.00
2023-05-12T03:36:07.651Z,100.00
2023-05-12T03:38:48.505Z,100.00
2023-05-12T03:41:18.576Z,100.00
2023-05-12T03:43:45.949Z,100.00
2023-05-12T03:46:14.040Z,100.00
2023-05-12T03:48:41.672Z,100.00
2023-05-12T03:51:09.092Z,100.00
2023-05-12T03:53:46.798Z,100.00
2023-05-12T03:56:24.025Z,100.00
2023-05-12T03:58:53.499Z,100.00
2023-05-12T04:01:22.813Z,100.00
2023-05-12T04:03:50.626Z,100.00
2023-05-12T04:06:20.058Z,100.00
2023-05-12T04:08:49.168Z,100.00
2023-05-12T04:11:21.125Z,100.00
2023-05-12T04:13:48.329Z,100.00
2023-05-12T04:16:15.553Z,100.00
2023-05-12T04:18:42.822Z,100.00
2023-05-12T04:21:13.124Z,100.00
2023-05-12T04:23:46.408Z,100.00
2023-05-12T04:26:14.186Z,100.00
2023-05-12T04:28:41.469Z,100.00
2023-05-12T04:31:09.337Z,100.00
2023-05-12T04:33:37.751Z,100.00
2023-05-12T04:36:05.953Z,100.00
2023-05-12T04:38:36.392Z,100.00
2023-05-12T04:41:03.626Z,100.00
2023-05-12T04:46:04.206Z,100.00
2023-05-12T04:48:31.638Z,100.00
2023-05-12T04:51:01.735Z,100.00
2023-05-12T04:53:28.997Z,100.00
2023-05-12T04:55:57.183Z,100.00
2023-05-12T04:58:34.678Z,100.00
2023-05-12T05:01:02.185Z,100.00
2023-05-12T05:03:31.065Z,100.00
2023-05-12T05:06:01.339Z,100.00
2023-05-12T05:08:28.493Z,93.10
2023-05-12T05:10:57.825Z,89.32
2023-05-12T05:13:26.686Z,85.70
2023-05-12T05:15:55.307Z,90.23
2023-05-12T05:18:24.669Z,94.40
2023-05-12T05:20:58.564Z,94.67
2023-05-12T05:23:26.840Z,91.40
2023-05-12T05:25:56.763Z,87.89
2023-05-12T05:28:24.135Z,90.91
2023-05-12T05:30:51.359Z,89.07
2023-05-12T05:33:19.062Z,85.84
2023-05-12T05:35:47.284Z,82.13
2023-05-12T05:38:14.507Z,82.82
2023-05-12T05:40:52.330Z,87.22
2023-05-12T05:43:21.433Z,87.06
2023-05-12T05:45:53.822Z,80.15
2023-05-12T05:48:22.012Z,77.67
2023-05-12T05:50:51.420Z,79.36
2023-05-12T05:53:20.063Z,78.21
2023-05-12T05:55:50.989Z,78.29
2023-05-12T05:58:18.336Z,77.99
2023-05-12T06:00:46.753Z,77.14
2023-05-12T06:03:17.303Z,78.16
2023-05-12T06:05:45.607Z,76.18
2023-05-12T06:08:13.675Z,75.20
2023-05-12T06:10:43.300Z,76.96
2023-05-12T06:13:10.873Z,77.64
2023-05-12T06:15:38.987Z,79.79
2023-05-12T06:18:06.553Z,81.69
2023-05-12T06:20:34.480Z,86.59
2023-05-12T06:23:04.669Z,88.84
2023-05-12T06:25:33.407Z,95.35
2023-05-12T06:28:01.418Z,91.37
2023-05-12T06:30:29.253Z,86.92
2023-05-12T06:32:56.739Z,84.09
2023-05-12T06:35:24.050Z,80.03
2023-05-12T06:37:51.561Z,80.28
2023-05-12T06:40:19.213Z,84.20
2023-05-12T06:42:50.135Z,81.24
2023-05-12T06:45:23.669Z,79.64
2023-05-12T06:47:51.977Z,80.86
2023-05-12T06:50:19.473Z,83.88
2023-05-12T06:52:51.774Z,85.69
2023-05-12T06:55:24.138Z,85.63
2023-05-12T06:57:58.926Z,81.42
2023-05-12T07:00:26.989Z,81.29
2023-05-12T07:05:22.729Z,77.43
2023-05-12T07:07:50.975Z,74.35
2023-05-12T07:10:26.592Z,73.54
2023-05-12T07:12:54.073Z,75.11
2023-05-12T07:15:21.927Z,75.24
2023-05-12T07:17:52.388Z,77.35
2023-05-12T07:20:19.592Z,75.55
2023-05-12T07:22:47.069Z,74.22
2023-05-12T07:25:18.487Z,75.38
2023-05-12T07:27:46.005Z,70.78
2023-05-12T07:30:17.284Z,67.42
2023-05-12T07:32:44.701Z,68.96
2023-05-12T07:35:12.586Z,70.12
2023-05-12T07:37:43.981Z,68.52
2023-05-12T07:40:12.253Z,70.64
2023-05-12T07:42:39.481Z,64.64
2023-05-12T07:45:07.060Z,62.38
2023-05-12T07:47:36.927Z,61.80
2023-05-12T07:50:04.504Z,62.69
2023-05-12T07:52:31.912Z,61.46
2023-05-12T07:54:59.080Z,63.48
2023-05-12T07:57:26.252Z,65.73
2023-05-12T07:59:53.389Z,63.84
2023-05-12T08:02:20.770Z,59.48
2023-05-12T08:04:47.957Z,60.91
2023-05-12T08:07:15.818Z,58.79
2023-05-12T08:09:43.097Z,57.33
2023-05-12T08:12:10.491Z,63.74
2023-05-12T08:14:40.611Z,58.73
2023-05-12T08:17:08.028Z,59.15
2023-05-12T08:19:35.356Z,61.07
2023-05-12T08:22:02.971Z,56.17
2023-05-12T08:24:32.599Z,56.35
2023-05-12T08:27:00.006Z,56.25
2023-05-12T08:29:27.214Z,56.23
2023-05-12T08:31:54.466Z,57.57
2023-05-12T08:34:21.841Z,58.27
2023-05-12T08:36:51.417Z,61.99
2023-05-12T08:39:19.510Z,54.55
2023-05-12T08:42:17.577Z,55.73
2023-05-12T08:44:45.811Z,57.72
2023-05-12T08:47:14.851Z,56.80
2023-05-12T08:49:46.434Z,58.07
2023-05-12T08:52:15.290Z,53.06
2023-05-12T08:54:54.959Z,54.97
2023-05-12T08:57:23.710Z,57.25
2023-05-12T08:59:53.889Z,54.60
2023-05-12T09:02:24.675Z,53.92
2023-05-12T09:04:55.132Z,52.78
2023-05-12T09:07:26.819Z,52.87
2023-05-12T09:10:03.104Z,53.73
2023-05-12T09:12:34.469Z,52.02
2023-05-12T09:15:10.292Z,51.52
2023-05-12T09:17:38.118Z,51.80
2023-05-12T09:20:11.309Z,51.58
2023-05-12T09:22:45.760Z,52.46
2023-05-12T09:25:19.541Z,52.55
2023-05-12T09:27:57.522Z,52.33
2023-05-12T09:30:32.321Z,52.92
2023-05-12T09:33:10.187Z,52.53
2023-05-12T09:35:41.461Z,54.03
2023-05-12T09:38:10.448Z,55.35
2023-05-12T09:40:38.567Z,55.38
2023-05-12T09:43:09.010Z,54.94
2023-05-12T09:45:39.496Z,53.23
2023-05-12T09:48:14.359Z,52.50
2023-05-12T09:50:47.663Z,56.02
2023-05-12T09:53:24.013Z,53.39
2023-05-12T09:55:51.267Z,55.12
2023-05-12T09:58:20.405Z,56.43
2023-05-12T10:03:22.473Z,53.04
2023-05-12T10:05:56.003Z,51.69
2023-05-12T10:08:27.244Z,51.17
2023-05-12T10:10:56.821Z,49.39
2023-05-12T10:13:25.548Z,50.47
2023-05-12T10:15:59.420Z,51.52
2023-05-12T10:18:30.872Z,50.31
2023-05-12T10:20:59.344Z,49.54
2023-05-12T10:23:28.006Z,48.52
2023-05-12T10:26:01.910Z,48.07
2023-05-12T10:28:29.579Z,48.54
2023-05-12T10:31:00.576Z,49.55
2023-05-12T10:33:28.103Z,49.90
2023-05-12T10:35:55.332Z,57.65
2023-05-12T10:38:22.678Z,54.49
2023-05-12T10:40:54.561Z,48.99
2023-05-12T10:43:27.830Z,49.61
2023-05-12T10:46:10.551Z,52.36
2023-05-12T10:48:51.742Z,55.49
2023-05-12T10:51:26.543Z,53.35
2023-05-12T10:54:04.522Z,52.17
2023-05-12T10:56:43.372Z,54.73
2023-05-12T10:59:25.259Z,54.04
2023-05-12T11:02:18.819Z,54.80
2023-05-12T11:04:55.548Z,57.98
2023-05-12T11:07:28.295Z,57.44
2023-05-12T11:10:07.076Z,58.74
2023-05-12T11:12:36.645Z,61.65
2023-05-12T11:15:05.971Z,63.38
2023-05-12T11:17:33.316Z,64.34
2023-05-12T11:20:01.600Z,65.21
2023-05-12T11:22:29.223Z,63.72
2023-05-12T11:24:56.569Z,61.59
2023-05-12T11:27:24.158Z,65.80
2023-05-12T11:29:58.413Z,62.75
2023-05-12T11:32:25.862Z,56.38
2023-05-12T11:34:53.148Z,60.34
2023-05-12T11:37:21.352Z,58.93
2023-05-12T11:39:48.752Z,62.23
2023-05-12T11:42:19.831Z,63.41
2023-05-12T11:44:49.587Z,63.52
2023-05-12T11:47:20.043Z,68.16
2023-05-12T11:49:52.591Z,65.95
2023-05-12T11:52:22.862Z,65.00
2023-05-12T11:54:57.845Z,64.69
2023-05-12T11:57:27.085Z,65.39
2023-05-12T12:00:03.685Z,66.64
2023-05-12T12:02:34.034Z,67.05
2023-05-12T12:05:01.426Z,63.18
2023-05-12T12:07:38.092Z,63.33
2023-05-12T12:10:16.946Z,63.33
2023-05-12T12:12:45.872Z,61.13
2023-05-12T12:15:13.762Z,59.76
2023-05-12T12:17:41.870Z,56.67
2023-05-12T12:20:10.640Z,62.81
2023-05-12T12:22:37.803Z,61.71
2023-05-12T12:25:06.060Z,62.12
2023-05-12T12:27:33.486Z,60.88
2023-05-12T12:30:00.736Z,59.83
2023-05-12T12:32:28.146Z,61.16
2023-05-12T12:34:59.698Z,60.02
2023-05-12T12:37:26.964Z,60.48
2023-05-12T12:39:55.165Z,61.25
2023-05-12T12:42:22.308Z,65.11
2023-05-12T12:44:51.457Z,62.29
2023-05-12T12:47:18.660Z,61.68
2023-05-12T12:49:45.887Z,62.25
2023-05-12T12:52:13.061Z,62.25
2023-05-12T12:54:40.304Z,62.54
2023-05-12T12:57:07.476Z,65.85
2023-05-12T12:59:34.714Z,63.62
2023-05-12T13:02:02.591Z,63.39
2023-05-12T13:04:30.071Z,67.06
2023-05-12T13:06:57.476Z,62.00
2023-05-12T13:09:24.646Z,58.28
2023-05-12T13:11:51.865Z,64.47
2023-05-12T13:14:19.445Z,54.83
2023-05-12T13:16:46.906Z,57.01
2023-05-12T13:19:14.314Z,57.25
2023-05-12T13:21:42.376Z,62.91
2023-05-12T13:24:10.076Z,61.46
2023-05-12T13:26:37.629Z,61.58
2023-05-12T13:29:04.785Z,56.08
2023-05-12T13:31:32.295Z,58.52
2023-05-12T13:33:59.826Z,65.59
2023-05-12T13:36:27.239Z,58.98
2023-05-12T13:38:54.477Z,59.99
2023-05-12T13:41:23.837Z,58.07
2023-05-12T13:43:57.166Z,58.03
2023-05-12T13:46:24.476Z,59.98
2023-05-12T13:48:52.681Z,60.87
2023-05-12T13:51:20.319Z,62.32
2023-05-12T13:53:47.526Z,61.49
2023-05-12T13:56:16.971Z,61.96
2023-05-12T13:58:44.606Z,60.88
2023-05-12T14:01:12.468Z,61.51
2023-05-12T14:03:43.531Z,61.90
2023-05-12T14:06:12.226Z,61.51
2023-05-12T14:08:42.104Z,59.16
2023-05-12T14:11:10.140Z,58.87
2023-05-12T14:13:37.594Z,58.92
2023-05-12T14:16:05.516Z,56.50
2023-05-12T14:18:33.152Z,58.70
2023-05-12T14:21:01.674Z,53.13
2023-05-12T14:23:29.291Z,54.93
2023-05-12T14:25:56.723Z,53.06
2023-05-12T14:28:24.169Z,53.30
2023-05-12T14:30:51.466Z,55.01
2023-05-12T14:33:18.689Z,55.40
2023-05-12T14:35:59.228Z,57.98
2023-05-12T14:38:30.656Z,56.39
2023-05-12T14:40:57.837Z,57.12
2023-05-12T14:43:24.993Z,58.31
2023-05-12T14:45:54.987Z,57.67
2023-05-12T14:48:23.601Z,55.97
2023-05-12T14:50:54.833Z,55.94
2023-05-12T14:53:22.795Z,56.84
2023-05-12T14:55:51.002Z,54.11
2023-05-12T14:58:19.095Z,54.75
2023-05-12T15:00:47.862Z,53.89
2023-05-12T15:03:18.257Z,55.00
2023-05-12T15:06:05.652Z,54.93
2023-05-12T15:08:33.638Z,57.19
2023-05-12T15:11:04.771Z,57.88
2023-05-12T15:13:35.906Z,59.29
2023-05-12T15:16:04.727Z,56.15
2023-05-12T15:18:32.014Z,56.65
2023-05-12T15:20:59.220Z,57.54
2023-05-12T15:23:26.484Z,59.81
2023-05-12T15:25:54.005Z,58.91
2023-05-12T15:28:21.538Z,63.29
2023-05-12T15:30:57.654Z,59.13
2023-05-12T15:33:24.977Z,61.37
2023-05-12T15:35:52.404Z,61.28
2023-05-12T15:38:21.066Z,59.63
2023-05-12T15:40:48.351Z,60.85
2023-05-12T15:43:15.681Z,58.42
2023-05-12T15:45:42.868Z,59.15
2023-05-12T15:48:11.004Z,59.10
2023-05-12T15:50:43.048Z,61.37
2023-05-12T15:53:10.382Z,56.39
2023-05-12T15:55:40.807Z,59.10
2023-05-12T15:58:09.093Z,58.98
2023-05-12T16:00:36.246Z,55.15
2023-05-12T16:03:11.788Z,57.60
2023-05-12T16:05:41.232Z,57.79
2023-05-12T16:08:10.929Z,55.51
2023-05-12T16:10:38.231Z,57.25
2023-05-12T16:13:09.107Z,59.30
2023-05-12T16:15:44.949Z,59.09
2023-05-12T16:18:12.159Z,56.32
2023-05-12T16:20:41.681Z,58.49
2023-05-12T16:23:08.888Z,55.76
2023-05-12T16:25:36.260Z,56.89
2023-05-12T16:28:08.272Z,56.09
2023-05-12T16:30:38.089Z,57.45
2023-05-12T16:33:07.090Z,61.89
2023-05-12T16:35:34.292Z,62.96
2023-05-12T16:38:02.157Z,61.64
2023-05-12T16:40:29.677Z,60.23
2023-05-12T16:42:59.790Z,59.61
2023-05-12T16:45:28.386Z,60.90
2023-05-12T16:47:55.587Z,61.95
2023-05-12T16:50:22.682Z,62.51
2023-05-12T16:52:49.845Z,62.17
2023-05-12T16:55:17.072Z,63.32
2023-05-12T16:57:44.255Z,63.41
2023-05-12T17:00:12.021Z,65.60
2023-05-12T17:02:39.270Z,64.35
2023-05-12T17:05:08.042Z,64.47
2023-05-12T17:07:35.681Z,61.74
2023-05-12T17:10:03.219Z,62.96
2023-05-12T17:12:30.288Z,64.51
2023-05-12T17:15:06.764Z,67.62
2023-05-12T17:17:36.270Z,72.14
2023-05-12T17:20:04.159Z,74.43
2023-05-12T17:22:35.793Z,76.18
2023-05-12T17:25:03.031Z,78.38
2023-05-12T17:27:37.086Z,80.53
2023-05-12T17:30:04.732Z,82.65
2023-05-12T17:32:36.073Z,85.65
2023-05-12T17:35:06.889Z,84.71
2023-05-12T17:37:40.033Z,86.23
2023-05-12T17:40:07.860Z,87.18
2023-05-12T17:42:35.213Z,87.91
2023-05-12T17:45:25.397Z,87.82
2023-05-12T17:47:56.189Z,88.99
2023-05-12T17:50:25.449Z,93.16
2023-05-12T17:52:55.682Z,91.44
2023-05-12T17:55:25.524Z,92.66
2023-05-12T17:57:52.780Z,93.14
2023-05-12T18:00:20.217Z,93.44
2023-05-12T18:02:51.233Z,94.70
2023-05-12T18:05:21.872Z,96.61
2023-05-12T18:07:50.220Z,100.00
2023-05-12T18:10:19.169Z,99.24
2023-05-12T18:12:47.017Z,98.91
2023-05-12T18:15:25.293Z,98.96
2023-05-12T18:18:01.702Z,99.02
2023-05-12T18:20:31.026Z,100.00
2023-05-12T18:22:59.038Z,100.00
2023-05-12T18:25:29.806Z,100.00
2023-05-12T18:28:17.352Z,100.00
2023-05-12T18:30:44.956Z,100.00
2023-05-12T18:33:19.451Z,100.00
2023-05-12T18:35:51.825Z,100.00
2023-05-12T18:38:25.171Z,100.00
2023-05-12T18:40:52.891Z,100.00
2023-05-12T18:43:20.018Z,100.00
2023-05-12T18:45:50.450Z,100.00
2023-05-12T18:48:17.629Z,100.00
2023-05-12T18:50:44.955Z,100.00
2023-05-12T18:53:15.547Z,100.00
2023-05-12T18:55:45.439Z,100.00
2023-05-12T18:58:14.889Z,100.00
2023-05-12T19:00:42.138Z,100.00
2023-05-12T19:03:09.539Z,100.00
2023-05-12T19:05:39.530Z,100.00
2023-05-12T19:08:09.240Z,100.00
2023-05-12T19:10:39.455Z,100.00
2023-05-12T19:13:08.432Z,100.00
2023-05-12T19:15:36.169Z,100.00
2023-05-12T19:18:03.486Z,100.00
2023-05-12T19:20:31.430Z,100.00
2023-05-12T19:22:59.829Z,100.00
2023-05-12T19:25:27.106Z,100.00
2023-05-12T19:27:57.048Z,100.00
2023-05-12T19:30:25.441Z,100.00
2023-05-12T19:32:52.713Z,100.00
2023-05-12T19:35:20.262Z,100.00
2023-05-12T19:37:47.537Z,100.00
2023-05-12T19:40:14.753Z,100.00
2023-05-12T19:42:42.414Z,100.00
2023-05-12T19:45:12.787Z,100.00
2023-05-12T19:47:39.894Z,100.00
2023-05-12T19:50:07.836Z,100.00
2023-05-12T19:52:39.377Z,100.00
2023-05-12T19:55:08.508Z,100.00
2023-05-12T19:57:36.352Z,100.00
2023-05-12T20:00:03.801Z,100.00
2023-05-12T20:02:39.800Z,100.00
2023-05-12T20:05:10.944Z,100.00
2023-05-12T20:07:39.087Z,100.00
2023-05-12T20:10:06.637Z,100.00
2023-05-12T20:12:33.776Z,100.00
2023-05-12T20:15:01.326Z,100.00
2023-05-12T20:17:28.723Z,100.00
2023-05-12T20:19:57.047Z,100.00
2023-05-12T20:22:27.399Z,100.00
2023-05-12T20:24:54.510Z,100.00
2023-05-12T20:27:21.655Z,100.00
2023-05-12T20:29:49.510Z,100.00
2023-05-12T20:32:16.604Z,100.00
2023-05-12T20:34:47.542Z,100.00
2023-05-12T20:37:15.723Z,100.00
2023-05-12T20:39:45.011Z,100.00
2023-05-12T20:42:12.228Z,100.00
2023-05-12T20:44:39.420Z,100.00
2023-05-12T20:47:06.695Z,100.00
2023-05-12T20:49:34.015Z,100.00
2023-05-12T20:52:02.258Z,100.00
2023-05-12T20:54:29.481Z,100.00
2023-05-12T20:56:58.160Z,100.00
2023-05-12T20:59:25.230Z,100.00
2023-05-12T21:01:55.009Z,100.00
2023-05-12T21:04:22.211Z,100.00
2023-05-12T21:06:52.089Z,100.00
2023-05-12T21:09:21.957Z,100.00
2023-05-12T21:11:49.068Z,100.00
2023-05-12T21:14:18.734Z,100.00
2023-05-12T21:16:46.969Z,100.00
2023-05-12T21:19:14.522Z,100.00
2023-05-12T21:21:44.488Z,100.00
2023-05-12T21:24:16.831Z,100.00
2023-05-12T21:26:45.698Z,100.00
2023-05-12T21:29:15.815Z,100.00
2023-05-12T21:31:46.100Z,100.00
2023-05-12T21:34:15.609Z,100.00
2023-05-12T21:36:43.339Z,100.00
2023-05-12T21:39:10.665Z,100.00
2023-05-12T21:41:40.598Z,100.00
2023-05-12T21:44:10.382Z,100.00
2023-05-12T21:46:38.440Z,100.00
2023-05-12T21:49:05.806Z,100.00
2023-05-12T21:51:35.549Z,100.00
2023-05-12T21:54:02.708Z,100.00
2023-05-12T21:56:29.810Z,100.00
2023-05-12T21:58:57.103Z,100.00
2023-05-12T22:01:24.353Z,100.00
2023-05-12T22:03:52.849Z,100.00
2023-05-12T22:06:20.614Z,100.00
2023-05-12T22:08:47.712Z,100.00
2023-05-12T22:11:26.861Z,100.00
2023-05-12T22:14:00.524Z,100.00
2023-05-12T22:16:40.851Z,100.00
2023-05-12T22:19:12.779Z,100.00
2023-05-12T22:21:48.935Z,100.00
2023-05-12T22:24:16.864Z,100.00
2023-05-12T22:26:44.345Z,100.00
2023-05-12T22:29:11.451Z,100.00
2023-05-12T22:31:38.707Z,100.00
2023-05-12T22:34:05.915Z,100.00
2023-05-12T22:36:33.340Z,100.00
2023-05-12T22:39:00.878Z,100.00
2023-05-12T22:41:28.007Z,100.00
2023-05-12T22:43:55.092Z,100.00
2023-05-12T22:46:22.817Z,100.00
2023-05-12T22:48:50.871Z,100.00
2023-05-12T22:51:18.195Z,100.00
2023-05-12T22:53:45.421Z,100.00
2023-05-12T22:56:12.496Z,100.00
2023-05-12T22:58:40.059Z,100.00
2023-05-12T23:01:07.391Z,100.00
2023-05-12T23:03:34.648Z,100.00
2023-05-12T23:06:01.818Z,100.00
2023-05-12T23:08:28.985Z,100.00
2023-05-12T23:10:56.433Z,100.00
2023-05-12T23:13:23.608Z,100.00
2023-05-12T23:15:54.791Z,100.00
2023-05-12T23:18:21.957Z,100.00
2023-05-12T23:20:49.046Z,100.00
2023-05-12T23:23:18.733Z,100.00
2023-05-12T23:25:46.988Z,100.00
2023-05-12T23:28:14.106Z,100.00
2023-05-12T23:30:41.353Z,100.00
2023-05-12T23:33:08.602Z,100.00
2023-05-12T23:35:35.781Z,100.00
2023-05-12T23:38:03.130Z,100.00
2023-05-12T23:40:30.889Z,100.00
2023-05-12T23:42:59.901Z,100.00
2023-05-12T23:45:27.083Z,100.00
2023-05-12T23:47:55.125Z,100.00
2023-05-12T23:50:22.515Z,100.00
2023-05-12T23:52:55.677Z,100.00
2023-05-12T23:55:23.381Z,100.00
2023-05-12T23:57:50.488Z,100.00
